Time;durP1;ratioP1;P1;durP2;ratioP2;P2;SDS_P1;SDS_P2;PMS_P1;PMS_P2;Temp;Humidity;BMP_temperature;BMP_pressure;BME280_temperature;BME280_humidity;BME280_pressure;Samples;Min_cycle;Max_cycle;Signal;HPM_P1;HPM_P2
2021/09/26 00:01:46;;;;;;;3.3;2.3;;;;;;;16.98;81.9375;940.6066;;;;
2021/09/26 00:04:12;;;;;;;5.2;3.2;;;;;;;16.93;82.22852;940.603;;;;
2021/09/26 00:06:37;;;;;;;5.5;2.7;;;;;;;16.99;81.6709;940.6386;;;;
2021/09/26 00:09:03;;;;;;;4.4;2.7;;;;;;;16.89;81.97852;940.6019;;;;
2021/09/26 00:11:28;;;;;;;4.6;3;;;;;;;16.77;82.10742;940.6583;;;;
2021/09/26 00:13:55;;;;;;;3.8;2.6;;;;;;;16.8;81.9502;940.6194;;;;
2021/09/26 00:16:20;;;;;;;3.8;2.6;;;;;;;16.85;82.20313;940.7092;;;;
2021/09/26 00:18:45;;;;;;;2.9;2.5;;;;;;;16.78;82.73242;940.6591;;;;
2021/09/26 00:21:10;;;;;;;6.3;3;;;;;;;16.7;83.05469;940.5923;;;;
2021/09/26 00:23:36;;;;;;;2.8;2.6;;;;;;;16.59;83.90234;940.6153;;;;
2021/09/26 00:26:02;;;;;;;4.3;2.7;;;;;;;16.54;84.01953;940.6408;;;;
2021/09/26 00:28:27;;;;;;;3.9;2.8;;;;;;;16.55;84.4375;940.7477;;;;
2021/09/26 00:30:52;;;;;;;4;2.7;;;;;;;16.57;84.21191;940.7064;;;;
2021/09/26 00:33:17;;;;;;;4.6;2.9;;;;;;;16.55;84.3125;940.721;;;;
2021/09/26 00:35:45;;;;;;;5.3;2.5;;;;;;;16.51;84.55664;940.6323;;;;
2021/09/26 00:38:10;;;;;;;4.5;2.3;;;;;;;16.52;84.43262;940.7078;;;;
2021/09/26 00:40:35;;;;;;;4.6;2.5;;;;;;;16.5;84.02441;940.777;;;;
2021/09/26 00:43:00;;;;;;;4.9;2.6;;;;;;;16.55;84.02246;940.7596;;;;
2021/09/26 00:45:25;;;;;;;5.2;2.8;;;;;;;16.54;84.19336;940.7639;;;;
2021/09/26 00:47:51;;;;;;;3.4;2.6;;;;;;;16.59;83.76367;940.7592;;;;
2021/09/26 00:50:16;;;;;;;5.2;2.3;;;;;;;16.58;83.81934;940.7593;;;;
2021/09/26 00:52:41;;;;;;;4.1;2.7;;;;;;;16.55;83.90723;940.7242;;;;
2021/09/26 00:55:06;;;;;;;3.5;2.2;;;;;;;16.62;83.47949;940.6838;;;;
2021/09/26 00:57:31;;;;;;;4.3;2.1;;;;;;;16.65;83.35742;940.71;;;;
2021/09/26 00:59:58;;;;;;;3.8;2.3;;;;;;;16.62;83.21289;940.6226;;;;
2021/09/26 01:02:22;;;;;;;2.7;2.2;;;;;;;16.64;83.04297;940.6489;;;;
2021/09/26 01:04:47;;;;;;;4.3;2.3;;;;;;;16.59;83.27734;940.6797;;;;
2021/09/26 01:07:12;;;;;;;3.2;2.2;;;;;;;16.67;82.91016;940.6513;;;;
2021/09/26 01:09:37;;;;;;;3.7;2.5;;;;;;;16.64;82.98438;940.6506;;;;
2021/09/26 01:12:02;;;;;;;3;2.2;;;;;;;16.66;83.09375;940.6769;;;;
2021/09/26 01:14:28;;;;;;;2.8;2.2;;;;;;;16.65;83.24121;940.6561;;;;
2021/09/26 01:16:57;;;;;;;3.1;2.2;;;;;;;16.66;82.76855;940.6503;;;;
2021/09/26 01:19:18;;;;;;;2.7;2.3;;;;;;;16.68;82.40234;940.5708;;;;
2021/09/26 01:21:43;;;;;;;5.3;2.7;;;;;;;16.61;82.71289;940.657;;;;
2021/09/26 01:24:08;;;;;;;4.1;2.4;;;;;;;16.57;83.17969;940.6678;;;;
2021/09/26 01:26:33;;;;;;;2.4;2.2;;;;;;;16.69;82.66113;940.6905;;;;
2021/09/26 01:29:00;;;;;;;6;2.9;;;;;;;16.64;82.65039;940.7221;;;;
2021/09/26 01:31:26;;;;;;;3.5;2.5;;;;;;;16.6;82.89648;940.7319;;;;
2021/09/26 01:33:51;;;;;;;6;2.9;;;;;;;16.56;83.26074;940.7;;;;
2021/09/26 01:36:16;;;;;;;4.4;2.6;;;;;;;16.59;83.23047;940.7464;;;;
2021/09/26 01:38:41;;;;;;;2.8;2.3;;;;;;;16.56;83.17773;940.725;;;;
2021/09/26 01:41:07;;;;;;;2.3;2.1;;;;;;;16.45;83.63184;940.7735;;;;
2021/09/26 01:43:33;;;;;;;3.7;2.3;;;;;;;16.33;84.1748;940.7566;;;;
2021/09/26 01:45:57;;;;;;;5;2.6;;;;;;;16.31;84.16113;940.6884;;;;
2021/09/26 01:48:22;;;;;;;3;2.5;;;;;;;16.34;84.02734;940.803;;;;
2021/09/26 01:50:48;;;;;;;3.7;2.6;;;;;;;16.39;83.87598;940.8243;;;;
2021/09/26 01:53:13;;;;;;;3.4;2.2;;;;;;;16.38;83.76855;940.7867;;;;
2021/09/26 01:55:38;;;;;;;2.7;2.3;;;;;;;16.43;83.74414;940.8613;;;;
2021/09/26 01:58:03;;;;;;;3.1;2.1;;;;;;;16.45;83.62988;940.8419;;;;
2021/09/26 02:00:28;;;;;;;3.8;2.6;;;;;;;16.38;84.0459;940.8284;;;;
2021/09/26 02:02:54;;;;;;;3.4;2.4;;;;;;;16.38;83.86133;940.8599;;;;
2021/09/26 02:05:19;;;;;;;3.2;2.4;;;;;;;16.39;83.74707;940.851;;;;
2021/09/26 02:07:45;;;;;;;5.6;2.9;;;;;;;16.35;83.90234;940.8006;;;;
2021/09/26 02:10:10;;;;;;;4.3;2.3;;;;;;;16.42;83.33691;940.7734;;;;
2021/09/26 02:12:37;;;;;;;4.9;2.2;;;;;;;16.35;83.51074;940.7427;;;;
2021/09/26 02:15:02;;;;;;;3.2;2.5;;;;;;;16.21;84.26758;940.7227;;;;
2021/09/26 02:17:27;;;;;;;3.5;2.4;;;;;;;16.19;84.18457;940.7043;;;;
2021/09/26 02:19:52;;;;;;;4.8;2.8;;;;;;;16.19;84.32227;940.6778;;;;
2021/09/26 02:22:17;;;;;;;4;2.4;;;;;;;16.28;83.73926;940.7039;;;;
2021/09/26 02:24:42;;;;;;;2.5;2.3;;;;;;;16.18;84.2627;940.7254;;;;
2021/09/26 02:27:07;;;;;;;3.7;2.4;;;;;;;16.1;84.72266;940.6955;;;;
2021/09/26 02:29:33;;;;;;;2.7;2.4;;;;;;;16.08;84.90234;940.7045;;;;
2021/09/26 02:31:58;;;;;;;4.4;2.5;;;;;;;16.07;84.92383;940.8411;;;;
2021/09/26 02:34:24;;;;;;;3.8;2.5;;;;;;;15.9;85.75781;940.851;;;;
2021/09/26 02:36:49;;;;;;;3.6;2.3;;;;;;;15.69;86.90723;940.905;;;;
2021/09/26 02:39:15;;;;;;;3.4;2.5;;;;;;;15.62;87.58594;940.858;;;;
2021/09/26 02:41:40;;;;;;;3.6;3;;;;;;;15.68;87.10156;940.8546;;;;
2021/09/26 02:44:05;;;;;;;4.8;2.6;;;;;;;15.74;86.52441;940.8171;;;;
2021/09/26 02:46:30;;;;;;;3.4;2.9;;;;;;;15.76;86.31836;940.8347;;;;
2021/09/26 02:48:55;;;;;;;3.7;2.5;;;;;;;15.74;86.24609;940.8276;;;;
2021/09/26 02:51:21;;;;;;;4.4;2.7;;;;;;;15.84;85.53711;940.8008;;;;
2021/09/26 02:53:46;;;;;;;3.3;2.5;;;;;;;15.82;85.47559;940.8273;;;;
2021/09/26 02:56:11;;;;;;;5.1;2.4;;;;;;;15.73;85.78223;940.7249;;;;
2021/09/26 02:58:36;;;;;;;2.9;2.4;;;;;;;15.64;86.13574;940.7527;;;;
2021/09/26 03:01:03;;;;;;;3.9;2.6;;;;;;;15.75;85.64844;940.7938;;;;
2021/09/26 03:03:28;;;;;;;2.9;2.4;;;;;;;15.83;85.0752;940.8128;;;;
2021/09/26 03:05:55;;;;;;;4.7;2.3;;;;;;;15.64;85.97168;940.7874;;;;
2021/09/26 03:08:20;;;;;;;4.2;2.2;;;;;;;15.54;86.8418;940.7238;;;;
2021/09/26 03:10:45;;;;;;;3.6;2.4;;;;;;;15.62;86.12988;940.7794;;;;
2021/09/26 03:13:10;;;;;;;5.1;2.4;;;;;;;15.69;85.61328;940.75;;;;
2021/09/26 03:15:36;;;;;;;3.7;2.2;;;;;;;15.74;85.36719;940.6727;;;;
2021/09/26 03:18:01;;;;;;;4.8;2.4;;;;;;;15.61;85.79297;940.6161;;;;
2021/09/26 03:20:27;;;;;;;2.7;2.2;;;;;;;15.53;85.88184;940.6252;;;;
2021/09/26 03:23:04;;;;;;;3.9;2.3;;;;;;;15.48;85.98828;940.6624;;;;
2021/09/26 03:25:29;;;;;;;2.6;2.3;;;;;;;15.47;85.94043;940.7226;;;;
2021/09/26 03:27:55;;;;;;;3.6;2.5;;;;;;;15.45;85.71484;940.7275;;;;
2021/09/26 03:30:23;;;;;;;5;2.4;;;;;;;15.39;85.60059;940.6689;;;;
2021/09/26 03:32:49;;;;;;;3.8;2.4;;;;;;;15.14;86.31445;940.698;;;;
2021/09/26 03:35:14;;;;;;;4;2.3;;;;;;;15.03;87.09863;940.7008;;;;
2021/09/26 03:37:47;;;;;;;3.4;2.4;;;;;;;15.06;87.07129;940.7023;;;;
2021/09/26 03:40:15;;;;;;;4.1;2.4;;;;;;;15.1;87.07715;940.6813;;;;
2021/09/26 03:42:41;;;;;;;4.5;2.6;;;;;;;15.15;87.01855;940.6401;;;;
2021/09/26 03:45:06;;;;;;;4.3;2.6;;;;;;;15.24;86.55176;940.6305;;;;
2021/09/26 03:47:31;;;;;;;3;2.2;;;;;;;15.26;86.44141;940.595;;;;
2021/09/26 03:49:56;;;;;;;2.9;2.2;;;;;;;15.28;86.44336;940.4698;;;;
2021/09/26 03:52:24;;;;;;;5.7;2.8;;;;;;;15.33;86.16406;940.4816;;;;
2021/09/26 03:54:50;;;;;;;3.5;2.5;;;;;;;15.28;86.26074;940.5027;;;;
2021/09/26 03:57:15;;;;;;;2.8;2.2;;;;;;;15.25;86.10352;940.4763;;;;
2021/09/26 03:59:40;;;;;;;3;2.4;;;;;;;15.31;85.79102;940.4127;;;;
2021/09/26 04:02:31;;;;;;;3.3;2.2;;;;;;;15.27;85.99316;940.3278;;;;
2021/09/26 04:04:57;;;;;;;3.8;2.3;;;;;;;15.17;86.46777;940.2983;;;;
2021/09/26 04:07:22;;;;;;;3.1;2.3;;;;;;;15.2;86.26563;940.3647;;;;
2021/09/26 04:09:50;;;;;;;3.7;2.6;;;;;;;15.26;85.9209;940.3231;;;;
2021/09/26 04:12:15;;;;;;;4;2.2;;;;;;;15.17;85.77734;940.2896;;;;
2021/09/26 04:14:42;;;;;;;4;2.4;;;;;;;15.07;86.45996;940.2949;;;;
2021/09/26 04:17:07;;;;;;;7.6;2.8;;;;;;;14.99;86.75684;940.2908;;;;
2021/09/26 04:19:34;;;;;;;4.5;2.5;;;;;;;14.79;87.28125;940.2529;;;;
2021/09/26 04:21:59;;;;;;;4.9;2.8;;;;;;;14.72;88.2002;940.2692;;;;
2021/09/26 04:24:25;;;;;;;2.6;2.3;;;;;;;14.71;88.20996;940.3005;;;;
2021/09/26 04:26:50;;;;;;;3.3;2.5;;;;;;;14.64;88.63574;940.2148;;;;
2021/09/26 04:29:15;;;;;;;2.7;2.3;;;;;;;14.74;87.91797;940.2033;;;;
2021/09/26 04:31:41;;;;;;;3.7;2.7;;;;;;;14.72;87.95801;940.2202;;;;
2021/09/26 04:34:07;;;;;;;2.9;2.3;;;;;;;14.67;87.94922;940.198;;;;
2021/09/26 04:36:56;;;;;;;4.2;2.5;;;;;;;14.71;87.75098;940.1699;;;;
2021/09/26 04:39:22;;;;;;;4.9;2.6;;;;;;;14.59;87.96875;940.1947;;;;
2021/09/26 04:41:47;;;;;;;2.6;2.2;;;;;;;14.55;88.21387;940.1892;;;;
2021/09/26 04:44:12;;;;;;;4.1;2.5;;;;;;;14.59;88.07129;940.1594;;;;
2021/09/26 04:46:37;;;;;;;2.4;2.2;;;;;;;14.65;87.49609;940.162;;;;
2021/09/26 04:49:02;;;;;;;6.5;2.6;;;;;;;14.55;88.01953;940.1932;;;;
2021/09/26 04:51:27;;;;;;;3.3;2.4;;;;;;;14.49;88.05078;940.1702;;;;
2021/09/26 04:57:17;;;;;;;3.9;2.9;;;;;;;14.5;87.85742;940.2327;;;;
2021/09/26 04:59:45;;;;;;;4.4;2.5;;;;;;;14.47;87.69043;940.1558;;;;
2021/09/26 05:02:09;;;;;;;4.3;2.6;;;;;;;14.46;87.91699;940.2559;;;;
2021/09/26 05:04:35;;;;;;;3.1;2.5;;;;;;;14.33;88.60547;940.2108;;;;
2021/09/26 05:07:00;;;;;;;4.5;2.7;;;;;;;14.28;88.59668;940.2076;;;;
2021/09/26 05:09:25;;;;;;;4.1;2.1;;;;;;;14.23;88.97656;940.2839;;;;
2021/09/26 05:11:54;;;;;;;2.8;2.3;;;;;;;14.15;89.75684;940.2524;;;;
2021/09/26 05:14:18;;;;;;;3.4;2.3;;;;;;;14.06;90.0127;940.3237;;;;
2021/09/26 05:16:43;;;;;;;4.5;2.9;;;;;;;14.04;90.33301;940.2525;;;;
2021/09/26 05:19:09;;;;;;;4.1;2.4;;;;;;;14.16;89.83691;940.4182;;;;
2021/09/26 05:21:34;;;;;;;3.9;2.4;;;;;;;14.26;89.06348;940.48;;;;
2021/09/26 05:24:00;;;;;;;3.3;2.4;;;;;;;14.3;88.75;940.4584;;;;
2021/09/26 05:26:24;;;;;;;5;2.5;;;;;;;14.34;88.44824;940.4542;;;;
2021/09/26 05:28:49;;;;;;;3.7;2.5;;;;;;;14.27;88.46582;940.3383;;;;
2021/09/26 05:31:14;;;;;;;6.4;2.4;;;;;;;14.15;89.1123;940.443;;;;
2021/09/26 05:33:40;;;;;;;4.9;2.8;;;;;;;14.17;89.13867;940.455;;;;
2021/09/26 05:36:05;;;;;;;6.6;3.5;;;;;;;14.16;88.91602;940.3973;;;;
2021/09/26 05:38:31;;;;;;;3.5;2.6;;;;;;;14.22;88.69922;940.404;;;;
2021/09/26 05:40:57;;;;;;;3.6;2.5;;;;;;;14.22;88.83691;940.4592;;;;
2021/09/26 05:43:23;;;;;;;3.6;2.7;;;;;;;14.15;88.92773;940.4662;;;;
2021/09/26 05:45:49;;;;;;;3.6;2.5;;;;;;;14.12;89.25586;940.4086;;;;
2021/09/26 05:48:15;;;;;;;3.3;2.4;;;;;;;14.13;89.12012;940.3189;;;;
2021/09/26 05:50:40;;;;;;;3.4;2.8;;;;;;;14.18;89.01367;940.2916;;;;
2021/09/26 05:53:07;;;;;;;4;2.7;;;;;;;14.36;88.11816;940.2988;;;;
2021/09/26 05:55:32;;;;;;;4.6;2.8;;;;;;;14.5;87.62793;940.3264;;;;
2021/09/26 05:57:57;;;;;;;4.4;2.7;;;;;;;14.69;87.80273;940.2908;;;;
2021/09/26 06:00:24;;;;;;;3.6;2.7;;;;;;;14.97;85.12598;940.3639;;;;
2021/09/26 06:02:47;;;;;;;3.8;2.4;;;;;;;15.23;84.56445;940.3016;;;;
2021/09/26 06:05:13;;;;;;;4.7;2.8;;;;;;;15.33;83.07324;940.248;;;;
2021/09/26 06:07:38;;;;;;;6.8;4.4;;;;;;;15.15;83.69531;940.2792;;;;
2021/09/26 06:10:03;;;;;;;3.6;3;;;;;;;15.06;83.55273;940.2595;;;;
2021/09/26 06:12:28;;;;;;;5.4;2.8;;;;;;;15.34;82.65918;940.2464;;;;
2021/09/26 06:14:53;;;;;;;4.6;2.7;;;;;;;15.5;82.44629;940.3019;;;;
2021/09/26 06:17:18;;;;;;;5;2.6;;;;;;;15.56;81.4873;940.2814;;;;
2021/09/26 06:19:43;;;;;;;2.9;2.4;;;;;;;15.7;81.44336;940.2739;;;;
2021/09/26 06:22:15;;;;;;;3.7;2.5;;;;;;;15.64;81.71094;940.235;;;;
2021/09/26 06:24:39;;;;;;;3.2;2.4;;;;;;;15.75;81.55762;940.1795;;;;
2021/09/26 06:27:04;;;;;;;3.4;2.3;;;;;;;15.7;81.63965;940.1085;;;;
2021/09/26 06:29:29;;;;;;;4.2;3;;;;;;;15.87;81.51074;940.1717;;;;
2021/09/26 06:31:54;;;;;;;4.3;3;;;;;;;16.02;80.68164;940.1459;;;;
2021/09/26 06:34:19;;;;;;;6.6;3.5;;;;;;;16.21;80.40625;940.108;;;;
2021/09/26 06:36:46;;;;;;;5.9;2.9;;;;;;;16.22;80.04883;940.0584;;;;
2021/09/26 06:39:11;;;;;;;4.2;2.5;;;;;;;16.32;79.40625;940.0036;;;;
2021/09/26 06:41:37;;;;;;;2.9;2.2;;;;;;;16.5;78.71094;940.1025;;;;
2021/09/26 06:44:03;;;;;;;7.2;2.8;;;;;;;16.28;79.14453;940.1648;;;;
2021/09/26 06:46:30;;;;;;;4.9;2.9;;;;;;;16.24;79.42773;940.1924;;;;
2021/09/26 06:48:55;;;;;;;5.1;2.6;;;;;;;16.44;79.12793;940.1378;;;;
2021/09/26 06:51:20;;;;;;;3.9;2.5;;;;;;;16.47;78.24121;940.1864;;;;
2021/09/26 06:53:45;;;;;;;4.5;3.1;;;;;;;16.79;77.33984;940.2302;;;;
2021/09/26 06:56:11;;;;;;;4.6;2.4;;;;;;;16.98;76.36328;940.1848;;;;
2021/09/26 06:58:36;;;;;;;4.9;2.7;;;;;;;17.14;75.76563;940.1357;;;;
2021/09/26 07:01:02;;;;;;;3.5;2.5;;;;;;;17.22;76.23047;940.0542;;;;
2021/09/26 07:03:27;;;;;;;5.9;2.3;;;;;;;17.44;75.28223;939.973;;;;
2021/09/26 07:05:52;;;;;;;3.6;2.1;;;;;;;17.66;74.67285;939.9562;;;;
2021/09/26 07:08:17;;;;;;;4;2.4;;;;;;;17.77;74.68945;939.9041;;;;
2021/09/26 07:10:42;;;;;;;3.5;2;;;;;;;17.84;69.45508;939.8984;;;;
2021/09/26 07:13:07;;;;;;;2.9;2.3;;;;;;;18.13;71.81152;939.8875;;;;
2021/09/26 07:15:34;;;;;;;3.7;2.1;;;;;;;18.35;71.81348;939.8477;;;;
2021/09/26 07:17:59;;;;;;;3.5;2.1;;;;;;;18.52;69.31738;939.8691;;;;
2021/09/26 07:20:23;;;;;;;3.8;2.4;;;;;;;18.76;67.86523;939.8885;;;;
2021/09/26 07:22:50;;;;;;;3.1;2.3;;;;;;;19.08;68.18164;939.8464;;;;
2021/09/26 07:25:15;;;;;;;3.8;2.6;;;;;;;19.22;66.01465;939.8591;;;;
2021/09/26 07:27:41;;;;;;;3.6;2.5;;;;;;;19.33;66.66016;939.8713;;;;
2021/09/26 07:30:09;;;;;;;4.3;2.5;;;;;;;19.66;65.80078;939.8494;;;;
2021/09/26 07:32:34;;;;;;;4.1;2.5;;;;;;;19.64;63.7002;939.7456;;;;
2021/09/26 07:34:59;;;;;;;4;2.3;;;;;;;19.9;65.25391;939.68;;;;
2021/09/26 07:37:24;;;;;;;4.6;2.5;;;;;;;20.08;63.99609;939.6453;;;;
2021/09/26 07:39:49;;;;;;;3.1;2.6;;;;;;;20.14;64.37695;939.647;;;;
2021/09/26 07:42:15;;;;;;;3.9;2;;;;;;;20.42;61.48828;939.6802;;;;
2021/09/26 07:44:40;;;;;;;3.4;2.3;;;;;;;20.26;62.62109;939.6685;;;;
2021/09/26 07:47:05;;;;;;;4.2;2.3;;;;;;;20.69;61.96973;939.6312;;;;
2021/09/26 07:49:30;;;;;;;4.1;2.4;;;;;;;21.33;60.30371;939.5711;;;;
2021/09/26 07:52:08;;;;;;;4.8;2.5;;;;;;;21.69;59.46191;939.5137;;;;
2021/09/26 07:54:33;;;;;;;5;2.7;;;;;;;21.59;58.69922;939.5019;;;;
2021/09/26 07:56:58;;;;;;;3.7;2.7;;;;;;;21.89;56.20898;939.416;;;;
2021/09/26 07:59:23;;;;;;;3.6;2.7;;;;;;;22.16;55.79785;939.3061;;;;
2021/09/26 08:01:51;;;;;;;3.6;2.4;;;;;;;21.81;55.39063;939.2925;;;;
2021/09/26 08:04:16;;;;;;;3.1;2.3;;;;;;;22.16;55.03516;939.2567;;;;
2021/09/26 08:06:42;;;;;;;3.8;2.4;;;;;;;22.61;52.93066;939.2678;;;;
2021/09/26 08:09:07;;;;;;;3;2.4;;;;;;;23.47;49.30664;939.2781;;;;
2021/09/26 08:11:32;;;;;;;3.8;2.4;;;;;;;24.2;48.26758;939.2372;;;;
2021/09/26 08:13:57;;;;;;;4.4;2.1;;;;;;;24.42;48.52734;939.2363;;;;
2021/09/26 08:16:23;;;;;;;4.2;2.4;;;;;;;25.04;47.17773;939.242;;;;
2021/09/26 08:18:48;;;;;;;2.2;2;;;;;;;25.56;46.78418;939.1866;;;;
2021/09/26 08:21:15;;;;;;;4.5;2.2;;;;;;;26.28;45.17969;939.2078;;;;
2021/09/26 08:23:40;;;;;;;3.1;1.9;;;;;;;26.42;41.93848;939.3017;;;;
2021/09/26 08:26:05;;;;;;;3.5;2.5;;;;;;;26.77;42.90625;939.2861;;;;
2021/09/26 08:28:30;;;;;;;3.3;2.3;;;;;;;27.12;41.55273;939.3503;;;;
2021/09/26 08:30:59;;;;;;;2.1;1.9;;;;;;;26.76;42.05273;939.3617;;;;
2021/09/26 08:33:22;;;;;;;2.5;2.3;;;;;;;27.5;40.91211;939.3334;;;;
2021/09/26 08:35:47;;;;;;;2.3;2.1;;;;;;;27.27;41.50879;939.3406;;;;
2021/09/26 08:38:13;;;;;;;2.8;2.2;;;;;;;26.44;43.72852;939.2731;;;;
2021/09/26 08:40:39;;;;;;;5.7;2.4;;;;;;;27.63;41.45898;939.2556;;;;
2021/09/26 08:43:35;;;;;;;3.6;2.2;;;;;;;27.79;39.40723;939.2217;;;;
2021/09/26 08:46:02;;;;;;;2.2;2;;;;;;;27.1;41.88281;939.1797;;;;
2021/09/26 08:48:26;;;;;;;2;1.8;;;;;;;27.57;40.78809;939.1883;;;;
2021/09/26 08:50:52;;;;;;;3.8;2.5;;;;;;;28.92;39.07813;939.1209;;;;
2021/09/26 08:53:21;;;;;;;1.9;1.8;;;;;;;27.5;41.44629;939.1579;;;;
2021/09/26 08:55:43;;;;;;;3.3;2.1;;;;;;;26.46;41.78711;939.17;;;;
2021/09/26 08:58:08;;;;;;;4;2.2;;;;;;;26.29;44.13867;939.1724;;;;
2021/09/26 09:00:36;;;;;;;3.2;2.5;;;;;;;26.11;44.87793;939.2469;;;;
2021/09/26 09:02:59;;;;;;;2.9;2.2;;;;;;;25.95;44.76758;939.3133;;;;
2021/09/26 09:05:25;;;;;;;3.1;2.4;;;;;;;25.89;44.6084;939.3041;;;;
2021/09/26 09:07:50;;;;;;;2.9;2.6;;;;;;;25.42;46.60449;939.3159;;;;
2021/09/26 09:10:15;;;;;;;2.9;2.4;;;;;;;24.81;48.62793;939.3116;;;;
2021/09/26 09:12:43;;;;;;;3.9;2.3;;;;;;;25.07;48.97559;939.3128;;;;
2021/09/26 09:15:08;;;;;;;6.2;2.4;;;;;;;25.18;46.98047;939.312;;;;
2021/09/26 09:17:33;;;;;;;4.2;2.5;;;;;;;25.26;46.74121;939.3395;;;;
2021/09/26 09:19:58;;;;;;;4;2.5;;;;;;;24.71;48.74707;939.3738;;;;
2021/09/26 09:22:23;;;;;;;4.7;2.4;;;;;;;24.77;47.49219;939.3774;;;;
2021/09/26 09:24:50;;;;;;;3.8;2.5;;;;;;;24.76;46.24121;939.4114;;;;
2021/09/26 09:27:15;;;;;;;4.7;2.6;;;;;;;24.99;46.19434;939.4196;;;;
2021/09/26 09:29:44;;;;;;;3.3;2.5;;;;;;;25.1;46.1582;939.386;;;;
2021/09/26 09:32:09;;;;;;;2.7;2.1;;;;;;;25.61;45.08887;939.379;;;;
2021/09/26 09:34:34;;;;;;;4.1;2.4;;;;;;;26.17;45.29883;939.346;;;;
2021/09/26 09:36:59;;;;;;;3.6;2.5;;;;;;;26.16;43.68848;939.3455;;;;
2021/09/26 09:39:25;;;;;;;3.6;2.2;;;;;;;25.8;44.83594;939.3113;;;;
2021/09/26 09:41:50;;;;;;;3.2;2.3;;;;;;;25.66;44.13574;939.4166;;;;
2021/09/26 09:44:15;;;;;;;4.8;2.6;;;;;;;25.66;45.09375;939.4267;;;;
2021/09/26 09:46:40;;;;;;;5;2.3;;;;;;;25.76;44.09863;939.4447;;;;
2021/09/26 09:49:06;;;;;;;4.6;2.2;;;;;;;25.78;43.55664;939.4656;;;;
2021/09/26 09:51:31;;;;;;;4.9;2.1;;;;;;;25.66;45.63672;939.4671;;;;
2021/09/26 09:53:56;;;;;;;4.6;2.4;;;;;;;25.24;46.51563;939.4921;;;;
2021/09/26 09:56:21;;;;;;;5.3;2.2;;;;;;;25.47;45.86523;939.433;;;;
2021/09/26 09:58:47;;;;;;;3;2.2;;;;;;;25.78;47.06836;939.3968;;;;
2021/09/26 10:01:12;;;;;;;3.8;2.4;;;;;;;25.98;45.65723;939.4334;;;;
2021/09/26 10:03:37;;;;;;;4.8;2.4;;;;;;;26.68;45.38574;939.3666;;;;
2021/09/26 10:06:03;;;;;;;2.8;2.2;;;;;;;26.74;44.28906;939.3008;;;;
2021/09/26 10:08:27;;;;;;;3.3;2;;;;;;;26.92;41.85449;939.335;;;;
2021/09/26 10:10:54;;;;;;;3.9;2.3;;;;;;;26.43;42.33008;939.3329;;;;
2021/09/26 10:13:19;;;;;;;4.5;2.3;;;;;;;27.04;41.60547;939.3387;;;;
2021/09/26 10:15:45;;;;;;;2.5;2.2;;;;;;;27.35;40.45898;939.3325;;;;
2021/09/26 10:18:10;;;;;;;3.8;2.3;;;;;;;27.38;41.58984;939.2913;;;;
2021/09/26 10:20:36;;;;;;;2.9;2;;;;;;;27.41;43.39551;939.2539;;;;
2021/09/26 10:23:01;;;;;;;2.5;2.1;;;;;;;27.59;42.0127;939.2216;;;;
2021/09/26 10:25:26;;;;;;;5.6;2.4;;;;;;;27.72;40.74316;939.1975;;;;
2021/09/26 10:27:51;;;;;;;4.1;2.5;;;;;;;27.58;42.8291;939.1191;;;;
2021/09/26 10:30:18;;;;;;;2.8;2.2;;;;;;;27.59;42.0957;939.142;;;;
2021/09/26 10:32:43;;;;;;;2.7;2.3;;;;;;;26.52;43.79395;939.0623;;;;
2021/09/26 10:35:08;;;;;;;2.7;2;;;;;;;27.34;42.46387;939.0563;;;;
2021/09/26 10:37:34;;;;;;;3;2.1;;;;;;;28.03;41.56641;939.0594;;;;
2021/09/26 10:40:00;;;;;;;2.9;2.2;;;;;;;28.29;40.04492;938.9992;;;;
2021/09/26 10:42:26;;;;;;;3.9;2.1;;;;;;;28.37;40.55078;938.998;;;;
2021/09/26 10:44:50;;;;;;;3.2;2.3;;;;;;;28.22;38.24414;938.9838;;;;
2021/09/26 10:47:18;;;;;;;5.3;2.3;;;;;;;28.12;38.30762;938.9739;;;;
2021/09/26 10:49:40;;;;;;;3;2.2;;;;;;;28.11;38.61523;938.9844;;;;
2021/09/26 10:52:08;;;;;;;2.7;2.1;;;;;;;28.14;39.22363;938.9966;;;;
2021/09/26 10:54:32;;;;;;;3.6;2.4;;;;;;;28.05;41.2002;938.9987;;;;
2021/09/26 10:57:04;;;;;;;2.4;2.2;;;;;;;27.94;40.89258;939.0218;;;;
2021/09/26 10:59:22;;;;;;;3.7;2.1;;;;;;;27.8;42.18652;939.0695;;;;
2021/09/26 11:01:47;;;;;;;2.8;2.1;;;;;;;27.01;45.43066;939.1153;;;;
2021/09/26 11:04:12;;;;;;;3.9;2.9;;;;;;;26.12;49.7998;939.1177;;;;
2021/09/26 11:06:39;;;;;;;4.1;2.7;;;;;;;25.65;50.9873;939.0712;;;;
2021/09/26 11:09:04;;;;;;;3.8;2.5;;;;;;;24.95;53.19824;939.118;;;;
2021/09/26 11:11:30;;;;;;;4.8;3.2;;;;;;;24.67;53.97754;939.1052;;;;
2021/09/26 11:13:55;;;;;;;4.3;2.4;;;;;;;24.55;53.5752;939.0544;;;;
2021/09/26 11:16:21;;;;;;;4.6;2.7;;;;;;;24.69;54.74707;939.0294;;;;
2021/09/26 11:18:47;;;;;;;5.2;3;;;;;;;25.05;53.49219;939.0101;;;;
2021/09/26 11:21:12;;;;;;;5.7;2.7;;;;;;;24.88;53.36719;939.0126;;;;
2021/09/26 11:23:37;;;;;;;7.2;2.7;;;;;;;25.31;52.16602;938.995;;;;
2021/09/26 11:26:03;;;;;;;4.4;2.4;;;;;;;25.47;51.40527;938.9927;;;;
2021/09/26 11:28:28;;;;;;;3.8;2.2;;;;;;;25.48;51.04004;938.9294;;;;
2021/09/26 11:30:53;;;;;;;4.8;2.4;;;;;;;24.99;53.5791;938.9235;;;;
2021/09/26 11:33:18;;;;;;;5.5;2.7;;;;;;;25.21;53.87793;938.9309;;;;
2021/09/26 11:35:43;;;;;;;11.2;2.8;;;;;;;25.08;52.3877;938.8414;;;;
2021/09/26 11:38:08;;;;;;;4.5;2.3;;;;;;;24.95;52.11328;938.8533;;;;
2021/09/26 11:40:33;;;;;;;4.4;2.7;;;;;;;25.01;52.59082;938.9128;;;;
2021/09/26 11:42:58;;;;;;;4.2;2.4;;;;;;;24.92;52.6875;938.963;;;;
2021/09/26 11:45:24;;;;;;;5.1;2.8;;;;;;;25.28;51.56055;938.8986;;;;
2021/09/26 11:47:49;;;;;;;4.6;2.7;;;;;;;25.14;52.48926;938.8272;;;;
2021/09/26 11:50:15;;;;;;;7.2;3.1;;;;;;;25.3;52.13086;938.8592;;;;
2021/09/26 11:52:39;;;;;;;4.3;2.2;;;;;;;25.51;51.65723;938.7798;;;;
2021/09/26 11:55:04;;;;;;;3.7;2.5;;;;;;;25.66;51.50977;938.7957;;;;
2021/09/26 11:57:29;;;;;;;5.2;2.3;;;;;;;25.86;51.68652;938.8111;;;;
2021/09/26 11:59:55;;;;;;;4.4;2.6;;;;;;;25.85;51.83789;938.7937;;;;
2021/09/26 12:02:20;;;;;;;6.3;2.9;;;;;;;25.71;52.7334;938.7916;;;;
2021/09/26 12:04:46;;;;;;;5.5;2.8;;;;;;;25.58;54.66699;938.8091;;;;
2021/09/26 12:07:11;;;;;;;3.6;2.6;;;;;;;25.89;52.06836;938.7875;;;;
2021/09/26 12:09:37;;;;;;;7.6;3;;;;;;;26.05;51.17578;938.7644;;;;
2021/09/26 12:12:03;;;;;;;5.3;2.9;;;;;;;25.76;53.08105;938.8181;;;;
2021/09/26 12:14:31;;;;;;;6.1;2.9;;;;;;;25.95;53.02148;938.8141;;;;
2021/09/26 12:16:54;;;;;;;6.3;3.4;;;;;;;25.82;52.63867;938.7891;;;;
2021/09/26 12:19:20;;;;;;;4.6;2.8;;;;;;;25.7;52.10547;938.7807;;;;
2021/09/26 12:21:45;;;;;;;4.9;2.6;;;;;;;25.99;51.77246;938.8046;;;;
2021/09/26 12:24:11;;;;;;;5.6;3;;;;;;;25.82;53.9873;938.7864;;;;
2021/09/26 12:26:35;;;;;;;5.1;2.9;;;;;;;25.83;53.97754;938.7787;;;;
2021/09/26 12:29:01;;;;;;;5.5;2.5;;;;;;;25.91;53.54883;938.758;;;;
2021/09/26 12:31:25;;;;;;;5.3;2.8;;;;;;;25.93;53.23242;938.7722;;;;
2021/09/26 12:33:54;;;;;;;8.1;3.1;;;;;;;25.94;53.68359;938.8379;;;;
2021/09/26 12:36:16;;;;;;;5.9;3;;;;;;;25.61;54.02148;938.8847;;;;
2021/09/26 12:38:42;;;;;;;4.2;3.1;;;;;;;25.5;54.60938;938.9043;;;;
2021/09/26 12:41:30;;;;;;;4.8;2.9;;;;;;;25.25;55.42871;938.9075;;;;
2021/09/26 12:43:57;;;;;;;7.1;3.4;;;;;;;25.05;54.61328;938.8292;;;;
2021/09/26 12:46:22;;;;;;;4.9;3.2;;;;;;;25.04;54.71875;938.8805;;;;
2021/09/26 12:48:47;;;;;;;5.7;2.8;;;;;;;24.99;55.66895;938.8484;;;;
2021/09/26 12:51:12;;;;;;;5.3;2.9;;;;;;;24.75;54.64746;938.8016;;;;
2021/09/26 12:53:37;;;;;;;8.1;3.4;;;;;;;24.85;55.94531;938.7731;;;;
2021/09/26 12:56:02;;;;;;;7.3;3.2;;;;;;;25.12;55.1543;938.7198;;;;
2021/09/26 12:58:27;;;;;;;5.9;3.4;;;;;;;25.14;54.93164;938.7149;;;;
2021/09/26 13:00:54;;;;;;;5.4;3.4;;;;;;;25.01;56.28613;938.6038;;;;
2021/09/26 13:03:21;;;;;;;6.2;3.2;;;;;;;24.84;56.52344;938.512;;;;
2021/09/26 13:05:46;;;;;;;5;3.4;;;;;;;24.83;56.83984;938.4897;;;;
2021/09/26 13:08:11;;;;;;;6.2;3;;;;;;;24.62;56.57715;938.5508;;;;
2021/09/26 13:10:36;;;;;;;6;3.2;;;;;;;24.82;56.06055;938.5699;;;;
2021/09/26 13:13:01;;;;;;;5.3;3.3;;;;;;;24.95;56.38379;938.502;;;;
2021/09/26 13:15:32;;;;;;;4.6;3;;;;;;;25.09;56.00098;938.4481;;;;
2021/09/26 13:17:52;;;;;;;4.7;3.6;;;;;;;24.99;57.16602;938.4736;;;;
2021/09/26 13:20:17;;;;;;;5.9;3.5;;;;;;;25.16;55.6543;938.5109;;;;
2021/09/26 13:22:43;;;;;;;8.1;3.2;;;;;;;25.22;55.4502;938.5945;;;;
2021/09/26 13:25:29;;;;;;;6.5;3.5;;;;;;;25.18;55.1377;938.6345;;;;
2021/09/26 13:27:54;;;;;;;8.3;3.5;;;;;;;25.07;55.1123;938.5999;;;;
2021/09/26 13:30:19;;;;;;;4.6;3;;;;;;;25.17;55.125;938.512;;;;
2021/09/26 13:32:44;;;;;;;4.3;3.5;;;;;;;25.32;55.3916;938.4637;;;;
2021/09/26 13:35:10;;;;;;;7;3.4;;;;;;;25.37;55.00684;938.4006;;;;
2021/09/26 13:37:43;;;;;;;7.8;3.9;;;;;;;25.45;55.76172;938.3699;;;;
2021/09/26 13:40:07;;;;;;;5.3;3.6;;;;;;;25.5;56.32227;938.3064;;;;
2021/09/26 13:42:33;;;;;;;7.1;3.9;;;;;;;25.16;57.88477;938.3065;;;;
2021/09/26 13:44:58;;;;;;;8.4;4;;;;;;;25.04;58.1416;938.2852;;;;
2021/09/26 13:47:23;;;;;;;4.9;4;;;;;;;24.97;58.5459;938.2559;;;;
2021/09/26 13:49:48;;;;;;;6.9;4;;;;;;;24.7;59.02734;938.3448;;;;
2021/09/26 13:52:14;;;;;;;5.2;4.1;;;;;;;24.53;59.61914;938.3527;;;;
2021/09/26 13:54:38;;;;;;;9;4.8;;;;;;;24.45;60.25488;938.4086;;;;
2021/09/26 13:57:04;;;;;;;7;4.8;;;;;;;24.27;61.26855;938.367;;;;
2021/09/26 13:59:29;;;;;;;8.2;4.6;;;;;;;24.21;60.77832;938.4017;;;;
2021/09/26 14:01:55;;;;;;;7.1;4.7;;;;;;;23.94;61.30664;938.473;;;;
2021/09/26 14:04:21;;;;;;;6.9;4.5;;;;;;;23.84;61.59766;938.4758;;;;
2021/09/26 14:06:46;;;;;;;6.9;4.7;;;;;;;23.57;62.33594;938.4863;;;;
2021/09/26 14:09:11;;;;;;;7.7;5.7;;;;;;;23.53;62.64844;938.5176;;;;
2021/09/26 14:11:36;;;;;;;7.4;5.1;;;;;;;23.4;63.14844;938.4955;;;;
2021/09/26 14:14:03;;;;;;;8.7;5.6;;;;;;;23.43;63.20996;938.5314;;;;
2021/09/26 14:16:27;;;;;;;9.5;5.3;;;;;;;23.32;63.91309;938.4905;;;;
2021/09/26 14:18:52;;;;;;;8.2;5.6;;;;;;;23;66.0625;938.5261;;;;
2021/09/26 14:21:17;;;;;;;9.2;5.5;;;;;;;23.04;65.88184;938.545;;;;